sensor_id;sensor_type;location;lat;lon;timestamp;P1;durP1;ratioP1;P2;durP2;ratioP2
5127;SDS011;2582;48.770;9.190;2022-10-16T00:01:25;3.80;;;1.80;;
5127;SDS011;2582;48.770;9.190;2022-10-16T00:03:52;2.00;;;1.57;;
5127;SDS011;2582;48.770;9.190;2022-10-16T00:06:20;4.63;;;1.60;;
5127;SDS011;2582;48.770;9.190;2022-10-16T00:08:46;3.40;;;2.10;;
5127;SDS011;2582;48.770;9.190;2022-10-16T00:11:13;3.10;;;1.40;;
5127;SDS011;2582;48.770;9.190;2022-10-16T00:13:41;5.00;;;1.90;;
5127;SDS011;2582;48.770;9.190;2022-10-16T00:16:08;2.40;;;1.40;;
5127;SDS011;2582;48.770;9.190;2022-10-16T00:18:35;3.93;;;1.60;;
5127;SDS011;2582;48.770;9.190;2022-10-16T00:21:09;4.17;;;1.90;;
5127;SDS011;2582;48.770;9.190;2022-10-16T00:23:37;6.50;;;2.07;;
5127;SDS011;2582;48.770;9.190;2022-10-16T00:26:07;2.53;;;1.67;;
5127;SDS011;2582;48.770;9.190;2022-10-16T00:28:37;5.50;;;2.33;;
5127;SDS011;2582;48.770;9.190;2022-10-16T00:31:04;3.70;;;1.63;;
5127;SDS011;2582;48.770;9.190;2022-10-16T00:33:35;3.57;;;2.10;;
5127;SDS011;2582;48.770;9.190;2022-10-16T00:36:02;4.37;;;1.70;;
5127;SDS011;2582;48.770;9.190;2022-10-16T00:38:29;2.23;;;1.60;;
5127;SDS011;2582;48.770;9.190;2022-10-16T00:40:55;3.53;;;1.60;;
5127;SDS011;2582;48.770;9.190;2022-10-16T00:43:41;2.20;;;1.73;;
5127;SDS011;2582;48.770;9.190;2022-10-16T00:46:15;3.33;;;1.80;;
5127;SDS011;2582;48.770;9.190;2022-10-16T00:51:40;1.97;;;1.63;;
5127;SDS011;2582;48.770;9.190;2022-10-16T00:54:12;3.53;;;2.00;;
5127;SDS011;2582;48.770;9.190;2022-10-16T00:56:40;3.60;;;2.17;;
5127;SDS011;2582;48.770;9.190;2022-10-16T00:59:07;4.97;;;1.93;;
5127;SDS011;2582;48.770;9.190;2022-10-16T01:01:41;2.27;;;1.60;;
5127;SDS011;2582;48.770;9.190;2022-10-16T01:04:07;4.03;;;1.53;;
5127;SDS011;2582;48.770;9.190;2022-10-16T01:12:40;5.80;;;2.20;;
5127;SDS011;2582;48.770;9.190;2022-10-16T01:15:11;1.90;;;1.70;;
5127;SDS011;2582;48.770;9.190;2022-10-16T01:21:08;3.67;;;1.97;;
5127;SDS011;2582;48.770;9.190;2022-10-16T01:27:09;4.67;;;1.97;;
5127;SDS011;2582;48.770;9.190;2022-10-16T01:29:42;2.97;;;2.20;;
5127;SDS011;2582;48.770;9.190;2022-10-16T01:32:13;2.40;;;2.20;;
5127;SDS011;2582;48.770;9.190;2022-10-16T01:34:53;2.57;;;2.10;;
5127;SDS011;2582;48.770;9.190;2022-10-16T01:37:30;4.90;;;1.80;;
5127;SDS011;2582;48.770;9.190;2022-10-16T01:40:03;3.83;;;1.87;;
5127;SDS011;2582;48.770;9.190;2022-10-16T01:42:34;1.53;;;1.43;;
5127;SDS011;2582;48.770;9.190;2022-10-16T01:45:02;2.33;;;1.57;;
5127;SDS011;2582;48.770;9.190;2022-10-16T01:47:31;3.00;;;1.73;;
5127;SDS011;2582;48.770;9.190;2022-10-16T01:49:59;2.67;;;1.80;;
5127;SDS011;2582;48.770;9.190;2022-10-16T01:52:30;1.63;;;1.43;;
5127;SDS011;2582;48.770;9.190;2022-10-16T01:54:58;5.23;;;1.60;;
5127;SDS011;2582;48.770;9.190;2022-10-16T01:57:27;4.13;;;1.87;;
5127;SDS011;2582;48.770;9.190;2022-10-16T01:59:54;2.73;;;2.03;;
5127;SDS011;2582;48.770;9.190;2022-10-16T02:02:25;2.17;;;1.80;;
5127;SDS011;2582;48.770;9.190;2022-10-16T02:04:55;1.87;;;1.63;;
5127;SDS011;2582;48.770;9.190;2022-10-16T02:07:29;3.63;;;1.50;;
5127;SDS011;2582;48.770;9.190;2022-10-16T02:09:55;1.93;;;1.63;;
5127;SDS011;2582;48.770;9.190;2022-10-16T02:12:25;3.93;;;1.70;;
5127;SDS011;2582;48.770;9.190;2022-10-16T02:14:57;3.40;;;2.03;;
5127;SDS011;2582;48.770;9.190;2022-10-16T02:17:23;4.50;;;1.80;;
5127;SDS011;2582;48.770;9.190;2022-10-16T02:19:49;2.10;;;1.90;;
5127;SDS011;2582;48.770;9.190;2022-10-16T02:22:19;6.73;;;1.97;;
5127;SDS011;2582;48.770;9.190;2022-10-16T02:25:15;2.10;;;1.70;;
5127;SDS011;2582;48.770;9.190;2022-10-16T02:30:23;4.73;;;1.67;;
5127;SDS011;2582;48.770;9.190;2022-10-16T02:32:54;4.10;;;1.70;;
5127;SDS011;2582;48.770;9.190;2022-10-16T02:35:21;3.97;;;1.97;;
5127;SDS011;2582;48.770;9.190;2022-10-16T02:37:48;2.80;;;1.90;;
5127;SDS011;2582;48.770;9.190;2022-10-16T02:40:15;4.50;;;2.03;;
5127;SDS011;2582;48.770;9.190;2022-10-16T02:42:42;2.67;;;1.80;;
5127;SDS011;2582;48.770;9.190;2022-10-16T02:45:08;3.20;;;1.50;;
5127;SDS011;2582;48.770;9.190;2022-10-16T02:47:35;1.97;;;1.50;;
5127;SDS011;2582;48.770;9.190;2022-10-16T02:50:00;6.07;;;1.70;;
5127;SDS011;2582;48.770;9.190;2022-10-16T02:52:26;2.40;;;1.40;;
5127;SDS011;2582;48.770;9.190;2022-10-16T02:54:52;2.83;;;1.67;;
5127;SDS011;2582;48.770;9.190;2022-10-16T02:57:17;3.47;;;2.23;;
5127;SDS011;2582;48.770;9.190;2022-10-16T02:59:43;3.70;;;1.67;;
5127;SDS011;2582;48.770;9.190;2022-10-16T03:02:09;3.37;;;2.03;;
5127;SDS011;2582;48.770;9.190;2022-10-16T03:04:35;2.83;;;1.50;;
5127;SDS011;2582;48.770;9.190;2022-10-16T03:07:01;2.77;;;2.10;;
5127;SDS011;2582;48.770;9.190;2022-10-16T03:09:26;3.20;;;1.60;;
5127;SDS011;2582;48.770;9.190;2022-10-16T03:11:52;1.97;;;1.40;;
5127;SDS011;2582;48.770;9.190;2022-10-16T03:14:18;3.23;;;1.60;;
5127;SDS011;2582;48.770;9.190;2022-10-16T03:16:43;2.97;;;1.93;;
5127;SDS011;2582;48.770;9.190;2022-10-16T03:19:09;2.10;;;1.50;;
5127;SDS011;2582;48.770;9.190;2022-10-16T03:21:34;2.70;;;1.83;;
5127;SDS011;2582;48.770;9.190;2022-10-16T03:24:00;1.90;;;1.70;;
5127;SDS011;2582;48.770;9.190;2022-10-16T03:26:25;3.33;;;1.83;;
5127;SDS011;2582;48.770;9.190;2022-10-16T03:28:51;3.77;;;2.23;;
5127;SDS011;2582;48.770;9.190;2022-10-16T03:31:16;4.63;;;1.67;;
5127;SDS011;2582;48.770;9.190;2022-10-16T03:33:42;5.20;;;2.23;;
5127;SDS011;2582;48.770;9.190;2022-10-16T03:36:08;1.93;;;1.73;;
5127;SDS011;2582;48.770;9.190;2022-10-16T03:38:33;3.20;;;1.97;;
5127;SDS011;2582;48.770;9.190;2022-10-16T03:40:59;4.20;;;2.10;;
5127;SDS011;2582;48.770;9.190;2022-10-16T03:43:24;2.73;;;1.50;;
5127;SDS011;2582;48.770;9.190;2022-10-16T03:45:50;2.33;;;1.70;;
5127;SDS011;2582;48.770;9.190;2022-10-16T03:48:16;5.30;;;1.60;;
5127;SDS011;2582;48.770;9.190;2022-10-16T03:50:42;5.30;;;2.00;;
5127;SDS011;2582;48.770;9.190;2022-10-16T03:53:08;3.43;;;1.73;;
5127;SDS011;2582;48.770;9.190;2022-10-16T03:55:34;3.80;;;1.90;;
5127;SDS011;2582;48.770;9.190;2022-10-16T03:58:00;5.53;;;2.30;;
5127;SDS011;2582;48.770;9.190;2022-10-16T04:00:26;3.43;;;1.90;;
5127;SDS011;2582;48.770;9.190;2022-10-16T04:02:51;6.27;;;1.83;;
5127;SDS011;2582;48.770;9.190;2022-10-16T04:05:17;2.90;;;2.27;;
5127;SDS011;2582;48.770;9.190;2022-10-16T04:07:43;8.27;;;2.20;;
5127;SDS011;2582;48.770;9.190;2022-10-16T04:10:08;5.77;;;1.90;;
5127;SDS011;2582;48.770;9.190;2022-10-16T04:12:34;5.60;;;2.10;;
5127;SDS011;2582;48.770;9.190;2022-10-16T04:14:59;2.63;;;1.63;;
5127;SDS011;2582;48.770;9.190;2022-10-16T04:17:25;8.60;;;2.50;;
5127;SDS011;2582;48.770;9.190;2022-10-16T04:19:50;5.07;;;1.60;;
5127;SDS011;2582;48.770;9.190;2022-10-16T04:22:16;2.80;;;1.73;;
5127;SDS011;2582;48.770;9.190;2022-10-16T04:24:41;4.37;;;1.77;;
5127;SDS011;2582;48.770;9.190;2022-10-16T04:27:07;4.30;;;1.53;;
5127;SDS011;2582;48.770;9.190;2022-10-16T04:29:33;3.83;;;1.80;;
5127;SDS011;2582;48.770;9.190;2022-10-16T04:31:58;4.77;;;1.50;;
5127;SDS011;2582;48.770;9.190;2022-10-16T04:34:24;1.60;;;1.50;;
5127;SDS011;2582;48.770;9.190;2022-10-16T04:36:49;1.90;;;1.57;;
5127;SDS011;2582;48.770;9.190;2022-10-16T04:39:15;2.80;;;1.30;;
5127;SDS011;2582;48.770;9.190;2022-10-16T04:41:41;3.60;;;1.70;;
5127;SDS011;2582;48.770;9.190;2022-10-16T04:44:07;5.23;;;1.80;;
5127;SDS011;2582;48.770;9.190;2022-10-16T04:46:33;1.73;;;1.63;;
5127;SDS011;2582;48.770;9.190;2022-10-16T04:48:58;3.60;;;1.90;;
5127;SDS011;2582;48.770;9.190;2022-10-16T04:51:24;2.50;;;1.70;;
5127;SDS011;2582;48.770;9.190;2022-10-16T04:53:50;3.90;;;1.53;;
5127;SDS011;2582;48.770;9.190;2022-10-16T04:56:16;5.40;;;1.90;;
5127;SDS011;2582;48.770;9.190;2022-10-16T04:58:42;2.40;;;1.70;;
5127;SDS011;2582;48.770;9.190;2022-10-16T05:01:07;2.60;;;1.73;;
5127;SDS011;2582;48.770;9.190;2022-10-16T05:03:33;5.50;;;1.90;;
5127;SDS011;2582;48.770;9.190;2022-10-16T05:05:58;4.63;;;2.03;;
5127;SDS011;2582;48.770;9.190;2022-10-16T05:08:24;3.70;;;1.97;;
5127;SDS011;2582;48.770;9.190;2022-10-16T05:10:50;2.60;;;1.57;;
5127;SDS011;2582;48.770;9.190;2022-10-16T05:13:15;2.87;;;2.00;;
5127;SDS011;2582;48.770;9.190;2022-10-16T05:15:41;6.93;;;2.10;;
5127;SDS011;2582;48.770;9.190;2022-10-16T05:18:06;3.50;;;2.03;;
5127;SDS011;2582;48.770;9.190;2022-10-16T05:20:33;3.83;;;2.00;;
5127;SDS011;2582;48.770;9.190;2022-10-16T05:22:59;4.50;;;2.00;;
5127;SDS011;2582;48.770;9.190;2022-10-16T05:25:25;8.03;;;1.97;;
5127;SDS011;2582;48.770;9.190;2022-10-16T05:27:51;3.33;;;2.20;;
5127;SDS011;2582;48.770;9.190;2022-10-16T05:30:17;4.93;;;1.80;;
5127;SDS011;2582;48.770;9.190;2022-10-16T05:32:47;5.17;;;2.57;;
5127;SDS011;2582;48.770;9.190;2022-10-16T05:35:13;2.60;;;2.17;;
5127;SDS011;2582;48.770;9.190;2022-10-16T05:37:39;4.80;;;2.77;;
5127;SDS011;2582;48.770;9.190;2022-10-16T05:40:05;6.03;;;4.60;;
5127;SDS011;2582;48.770;9.190;2022-10-16T05:42:31;7.50;;;3.60;;
5127;SDS011;2582;48.770;9.190;2022-10-16T05:44:57;7.40;;;3.37;;
5127;SDS011;2582;48.770;9.190;2022-10-16T05:47:22;5.63;;;3.37;;
5127;SDS011;2582;48.770;9.190;2022-10-16T05:49:48;5.07;;;3.20;;
5127;SDS011;2582;48.770;9.190;2022-10-16T05:52:13;5.60;;;2.50;;
5127;SDS011;2582;48.770;9.190;2022-10-16T05:54:39;7.00;;;3.40;;
5127;SDS011;2582;48.770;9.190;2022-10-16T05:57:04;8.67;;;3.70;;
5127;SDS011;2582;48.770;9.190;2022-10-16T05:59:30;6.80;;;3.57;;
5127;SDS011;2582;48.770;9.190;2022-10-16T06:01:56;6.03;;;3.63;;
5127;SDS011;2582;48.770;9.190;2022-10-16T06:04:22;6.73;;;3.43;;
5127;SDS011;2582;48.770;9.190;2022-10-16T06:06:48;6.57;;;4.67;;
5127;SDS011;2582;48.770;9.190;2022-10-16T06:09:13;6.20;;;3.50;;
5127;SDS011;2582;48.770;9.190;2022-10-16T06:11:39;3.93;;;2.80;;
5127;SDS011;2582;48.770;9.190;2022-10-16T06:14:05;7.47;;;5.00;;
5127;SDS011;2582;48.770;9.190;2022-10-16T06:16:34;4.03;;;2.60;;
5127;SDS011;2582;48.770;9.190;2022-10-16T06:19:01;6.53;;;4.83;;
5127;SDS011;2582;48.770;9.190;2022-10-16T06:21:29;9.10;;;5.57;;
5127;SDS011;2582;48.770;9.190;2022-10-16T06:23:55;5.47;;;3.90;;
5127;SDS011;2582;48.770;9.190;2022-10-16T06:26:22;7.13;;;5.17;;
5127;SDS011;2582;48.770;9.190;2022-10-16T06:28:50;7.83;;;5.90;;
5127;SDS011;2582;48.770;9.190;2022-10-16T06:31:15;5.73;;;4.20;;
5127;SDS011;2582;48.770;9.190;2022-10-16T06:33:41;9.43;;;3.27;;
5127;SDS011;2582;48.770;9.190;2022-10-16T06:36:11;7.80;;;3.60;;
5127;SDS011;2582;48.770;9.190;2022-10-16T06:38:40;4.23;;;3.20;;
5127;SDS011;2582;48.770;9.190;2022-10-16T06:41:06;2.93;;;2.30;;
5127;SDS011;2582;48.770;9.190;2022-10-16T06:43:33;4.40;;;2.67;;
5127;SDS011;2582;48.770;9.190;2022-10-16T06:46:02;3.30;;;2.43;;
5127;SDS011;2582;48.770;9.190;2022-10-16T06:48:29;4.97;;;3.87;;
5127;SDS011;2582;48.770;9.190;2022-10-16T06:50:56;3.30;;;3.00;;
5127;SDS011;2582;48.770;9.190;2022-10-16T06:53:22;2.83;;;2.50;;
5127;SDS011;2582;48.770;9.190;2022-10-16T06:55:48;4.83;;;3.40;;
5127;SDS011;2582;48.770;9.190;2022-10-16T06:58:13;3.97;;;2.50;;
5127;SDS011;2582;48.770;9.190;2022-10-16T07:00:39;3.60;;;1.90;;
5127;SDS011;2582;48.770;9.190;2022-10-16T07:03:04;4.33;;;3.63;;
5127;SDS011;2582;48.770;9.190;2022-10-16T07:05:30;4.30;;;3.90;;
5127;SDS011;2582;48.770;9.190;2022-10-16T07:07:55;4.40;;;3.50;;
5127;SDS011;2582;48.770;9.190;2022-10-16T07:10:21;3.10;;;2.80;;
5127;SDS011;2582;48.770;9.190;2022-10-16T07:12:49;2.53;;;2.33;;
5127;SDS011;2582;48.770;9.190;2022-10-16T07:15:14;3.30;;;2.67;;
5127;SDS011;2582;48.770;9.190;2022-10-16T07:17:40;3.70;;;2.73;;
5127;SDS011;2582;48.770;9.190;2022-10-16T07:20:06;4.37;;;3.23;;
5127;SDS011;2582;48.770;9.190;2022-10-16T07:22:32;7.40;;;5.60;;
5127;SDS011;2582;48.770;9.190;2022-10-16T07:24:57;10.13;;;5.40;;
5127;SDS011;2582;48.770;9.190;2022-10-16T07:27:23;3.67;;;3.00;;
5127;SDS011;2582;48.770;9.190;2022-10-16T07:29:49;5.27;;;4.03;;
5127;SDS011;2582;48.770;9.190;2022-10-16T07:32:15;4.13;;;3.73;;
5127;SDS011;2582;48.770;9.190;2022-10-16T07:34:40;4.90;;;3.67;;
5127;SDS011;2582;48.770;9.190;2022-10-16T07:37:07;5.97;;;4.30;;
5127;SDS011;2582;48.770;9.190;2022-10-16T07:39:32;6.40;;;3.87;;
5127;SDS011;2582;48.770;9.190;2022-10-16T07:41:58;5.00;;;3.43;;
5127;SDS011;2582;48.770;9.190;2022-10-16T07:44:24;5.33;;;4.30;;
5127;SDS011;2582;48.770;9.190;2022-10-16T07:46:49;4.47;;;3.20;;
5127;SDS011;2582;48.770;9.190;2022-10-16T07:49:15;4.90;;;3.70;;
5127;SDS011;2582;48.770;9.190;2022-10-16T07:51:40;10.03;;;4.90;;
5127;SDS011;2582;48.770;9.190;2022-10-16T07:54:07;6.33;;;4.23;;
5127;SDS011;2582;48.770;9.190;2022-10-16T07:56:34;12.00;;;3.77;;
5127;SDS011;2582;48.770;9.190;2022-10-16T07:58:59;5.90;;;3.77;;
5127;SDS011;2582;48.770;9.190;2022-10-16T08:01:25;11.90;;;7.87;;
5127;SDS011;2582;48.770;9.190;2022-10-16T08:03:51;6.10;;;4.03;;
5127;SDS011;2582;48.770;9.190;2022-10-16T08:06:17;5.23;;;3.40;;
5127;SDS011;2582;48.770;9.190;2022-10-16T08:08:44;4.07;;;3.07;;
5127;SDS011;2582;48.770;9.190;2022-10-16T08:11:10;7.93;;;3.43;;
5127;SDS011;2582;48.770;9.190;2022-10-16T08:13:36;4.97;;;3.27;;
5127;SDS011;2582;48.770;9.190;2022-10-16T08:16:02;5.43;;;3.10;;
5127;SDS011;2582;48.770;9.190;2022-10-16T08:18:32;8.50;;;3.40;;
5127;SDS011;2582;48.770;9.190;2022-10-16T08:21:12;5.43;;;1.77;;
5127;SDS011;2582;48.770;9.190;2022-10-16T08:23:42;2.40;;;1.80;;
5127;SDS011;2582;48.770;9.190;2022-10-16T08:26:09;1.87;;;1.20;;
5127;SDS011;2582;48.770;9.190;2022-10-16T08:28:35;2.27;;;1.33;;
5127;SDS011;2582;48.770;9.190;2022-10-16T08:31:11;4.20;;;1.93;;
5127;SDS011;2582;48.770;9.190;2022-10-16T08:33:38;1.70;;;1.47;;
5127;SDS011;2582;48.770;9.190;2022-10-16T08:36:06;3.80;;;2.20;;
5127;SDS011;2582;48.770;9.190;2022-10-16T08:38:32;3.87;;;1.70;;
5127;SDS011;2582;48.770;9.190;2022-10-16T08:44:43;2.23;;;1.90;;
5127;SDS011;2582;48.770;9.190;2022-10-16T08:49:27;2.40;;;1.37;;
5127;SDS011;2582;48.770;9.190;2022-10-16T08:51:54;3.17;;;1.77;;
5127;SDS011;2582;48.770;9.190;2022-10-16T08:54:32;1.67;;;1.57;;
5127;SDS011;2582;48.770;9.190;2022-10-16T08:57:24;1.80;;;1.47;;
5127;SDS011;2582;48.770;9.190;2022-10-16T08:59:54;3.17;;;1.50;;
5127;SDS011;2582;48.770;9.190;2022-10-16T09:10:18;2.03;;;1.83;;
5127;SDS011;2582;48.770;9.190;2022-10-16T09:21:18;3.97;;;1.50;;
5127;SDS011;2582;48.770;9.190;2022-10-16T09:23:54;12.30;;;1.90;;
5127;SDS011;2582;48.770;9.190;2022-10-16T09:26:24;1.27;;;1.17;;
5127;SDS011;2582;48.770;9.190;2022-10-16T09:28:51;2.30;;;1.50;;
5127;SDS011;2582;48.770;9.190;2022-10-16T09:31:18;3.97;;;1.40;;
5127;SDS011;2582;48.770;9.190;2022-10-16T09:33:53;2.00;;;1.57;;
5127;SDS011;2582;48.770;9.190;2022-10-16T09:36:23;3.27;;;1.57;;
5127;SDS011;2582;48.770;9.190;2022-10-16T09:39:00;4.20;;;1.33;;
5127;SDS011;2582;48.770;9.190;2022-10-16T09:41:29;2.40;;;1.67;;
5127;SDS011;2582;48.770;9.190;2022-10-16T09:43:55;1.50;;;1.40;;
5127;SDS011;2582;48.770;9.190;2022-10-16T09:46:35;1.40;;;1.30;;
5127;SDS011;2582;48.770;9.190;2022-10-16T09:49:18;1.93;;;1.47;;
5127;SDS011;2582;48.770;9.190;2022-10-16T09:51:50;1.80;;;1.10;;
5127;SDS011;2582;48.770;9.190;2022-10-16T09:54:17;2.87;;;1.40;;
5127;SDS011;2582;48.770;9.190;2022-10-16T09:56:44;6.60;;;2.17;;
5127;SDS011;2582;48.770;9.190;2022-10-16T09:59:18;1.80;;;1.40;;
5127;SDS011;2582;48.770;9.190;2022-10-16T10:01:45;3.67;;;1.87;;
5127;SDS011;2582;48.770;9.190;2022-10-16T10:04:13;2.17;;;1.67;;
5127;SDS011;2582;48.770;9.190;2022-10-16T10:11:52;1.87;;;1.40;;
5127;SDS011;2582;48.770;9.190;2022-10-16T10:14:21;4.70;;;1.33;;
5127;SDS011;2582;48.770;9.190;2022-10-16T10:17:01;2.47;;;1.40;;
5127;SDS011;2582;48.770;9.190;2022-10-16T10:19:29;4.13;;;1.77;;
5127;SDS011;2582;48.770;9.190;2022-10-16T10:22:11;1.40;;;1.30;;
5127;SDS011;2582;48.770;9.190;2022-10-16T10:24:43;2.10;;;1.57;;
5127;SDS011;2582;48.770;9.190;2022-10-16T10:27:36;1.30;;;1.07;;
5127;SDS011;2582;48.770;9.190;2022-10-16T10:38:48;2.57;;;1.70;;
5127;SDS011;2582;48.770;9.190;2022-10-16T10:41:24;2.37;;;1.67;;
5127;SDS011;2582;48.770;9.190;2022-10-16T10:44:11;3.00;;;1.70;;
5127;SDS011;2582;48.770;9.190;2022-10-16T10:49:29;2.10;;;1.50;;
5127;SDS011;2582;48.770;9.190;2022-10-16T10:57:28;4.43;;;1.57;;
5127;SDS011;2582;48.770;9.190;2022-10-16T11:03:13;2.47;;;1.37;;
5127;SDS011;2582;48.770;9.190;2022-10-16T11:05:52;3.07;;;1.50;;
5127;SDS011;2582;48.770;9.190;2022-10-16T11:08:37;2.43;;;1.60;;
5127;SDS011;2582;48.770;9.190;2022-10-16T11:11:09;1.40;;;1.30;;
5127;SDS011;2582;48.770;9.190;2022-10-16T11:13:58;1.57;;;1.37;;
5127;SDS011;2582;48.770;9.190;2022-10-16T11:16:37;4.03;;;1.40;;
5127;SDS011;2582;48.770;9.190;2022-10-16T11:22:00;3.03;;;1.23;;
5127;SDS011;2582;48.770;9.190;2022-10-16T11:24:53;2.50;;;1.53;;
5127;SDS011;2582;48.770;9.190;2022-10-16T11:27:43;7.63;;;4.63;;
5127;SDS011;2582;48.770;9.190;2022-10-16T11:38:26;1.97;;;1.77;;
5127;SDS011;2582;48.770;9.190;2022-10-16T11:41:48;2.40;;;1.40;;
5127;SDS011;2582;48.770;9.190;2022-10-16T11:47:16;3.97;;;1.80;;
5127;SDS011;2582;48.770;9.190;2022-10-16T11:49:45;2.63;;;1.80;;
5127;SDS011;2582;48.770;9.190;2022-10-16T11:52:33;1.37;;;1.17;;
5127;SDS011;2582;48.770;9.190;2022-10-16T11:57:44;3.57;;;1.27;;
5127;SDS011;2582;48.770;9.190;2022-10-16T12:00:28;3.13;;;1.80;;
5127;SDS011;2582;48.770;9.190;2022-10-16T12:03:08;4.67;;;1.97;;
5127;SDS011;2582;48.770;9.190;2022-10-16T12:05:58;3.77;;;1.20;;
5127;SDS011;2582;48.770;9.190;2022-10-16T12:08:55;2.50;;;1.87;;
5127;SDS011;2582;48.770;9.190;2022-10-16T12:13:51;2.60;;;1.30;;
5127;SDS011;2582;48.770;9.190;2022-10-16T12:16:28;1.80;;;0.90;;
5127;SDS011;2582;48.770;9.190;2022-10-16T12:19:10;1.63;;;1.53;;
5127;SDS011;2582;48.770;9.190;2022-10-16T12:21:37;2.07;;;1.87;;
5127;SDS011;2582;48.770;9.190;2022-10-16T12:24:03;2.33;;;1.33;;
5127;SDS011;2582;48.770;9.190;2022-10-16T12:26:31;3.07;;;1.30;;
5127;SDS011;2582;48.770;9.190;2022-10-16T12:32:03;1.57;;;1.33;;
5127;SDS011;2582;48.770;9.190;2022-10-16T12:37:12;1.70;;;1.60;;
5127;SDS011;2582;48.770;9.190;2022-10-16T12:39:44;3.83;;;1.57;;
5127;SDS011;2582;48.770;9.190;2022-10-16T12:44:44;1.63;;;1.20;;
5127;SDS011;2582;48.770;9.190;2022-10-16T12:47:20;1.70;;;1.30;;
5127;SDS011;2582;48.770;9.190;2022-10-16T12:49:48;2.23;;;1.40;;
5127;SDS011;2582;48.770;9.190;2022-10-16T12:52:29;1.87;;;1.50;;
5127;SDS011;2582;48.770;9.190;2022-10-16T12:55:02;4.27;;;1.53;;
5127;SDS011;2582;48.770;9.190;2022-10-16T12:58:15;2.43;;;1.30;;
5127;SDS011;2582;48.770;9.190;2022-10-16T13:08:37;5.73;;;1.50;;
5127;SDS011;2582;48.770;9.190;2022-10-16T13:14:30;3.27;;;1.30;;
5127;SDS011;2582;48.770;9.190;2022-10-16T13:17:10;4.07;;;1.30;;
5127;SDS011;2582;48.770;9.190;2022-10-16T13:25:45;2.43;;;1.67;;
5127;SDS011;2582;48.770;9.190;2022-10-16T13:28:39;2.30;;;1.90;;
5127;SDS011;2582;48.770;9.190;2022-10-16T13:31:04;2.33;;;1.50;;
5127;SDS011;2582;48.770;9.190;2022-10-16T13:33:39;2.90;;;1.57;;
5127;SDS011;2582;48.770;9.190;2022-10-16T13:36:05;6.90;;;1.60;;
5127;SDS011;2582;48.770;9.190;2022-10-16T13:38:32;6.07;;;2.60;;
5127;SDS011;2582;48.770;9.190;2022-10-16T13:41:00;8.20;;;1.73;;
5127;SDS011;2582;48.770;9.190;2022-10-16T13:43:45;4.03;;;1.73;;
5127;SDS011;2582;48.770;9.190;2022-10-16T13:46:18;5.13;;;1.70;;
5127;SDS011;2582;48.770;9.190;2022-10-16T13:48:59;5.20;;;1.80;;
5127;SDS011;2582;48.770;9.190;2022-10-16T13:51:29;2.73;;;1.70;;
5127;SDS011;2582;48.770;9.190;2022-10-16T13:53:56;2.67;;;1.83;;
5127;SDS011;2582;48.770;9.190;2022-10-16T13:56:24;5.90;;;1.73;;
5127;SDS011;2582;48.770;9.190;2022-10-16T13:59:03;4.57;;;1.70;;
5127;SDS011;2582;48.770;9.190;2022-10-16T14:01:47;5.50;;;1.87;;
5127;SDS011;2582;48.770;9.190;2022-10-16T14:04:13;6.17;;;1.90;;
5127;SDS011;2582;48.770;9.190;2022-10-16T14:06:43;5.80;;;1.90;;
5127;SDS011;2582;48.770;9.190;2022-10-16T14:11:55;8.20;;;2.10;;
5127;SDS011;2582;48.770;9.190;2022-10-16T14:14:32;5.23;;;1.93;;
5127;SDS011;2582;48.770;9.190;2022-10-16T14:17:04;5.13;;;1.60;;
5127;SDS011;2582;48.770;9.190;2022-10-16T14:19:30;5.17;;;1.90;;
5127;SDS011;2582;48.770;9.190;2022-10-16T14:21:57;7.43;;;1.70;;
5127;SDS011;2582;48.770;9.190;2022-10-16T14:26:57;3.43;;;1.83;;
5127;SDS011;2582;48.770;9.190;2022-10-16T14:29:24;2.87;;;2.13;;
5127;SDS011;2582;48.770;9.190;2022-10-16T14:32:20;4.33;;;1.80;;
5127;SDS011;2582;48.770;9.190;2022-10-16T14:34:52;4.90;;;1.93;;
5127;SDS011;2582;48.770;9.190;2022-10-16T14:37:23;2.67;;;1.90;;
5127;SDS011;2582;48.770;9.190;2022-10-16T14:39:50;2.40;;;2.00;;
5127;SDS011;2582;48.770;9.190;2022-10-16T14:42:17;1.97;;;1.67;;
5127;SDS011;2582;48.770;9.190;2022-10-16T14:44:48;4.27;;;2.00;;
5127;SDS011;2582;48.770;9.190;2022-10-16T14:47:18;5.83;;;1.73;;
5127;SDS011;2582;48.770;9.190;2022-10-16T14:49:51;5.10;;;2.10;;
5127;SDS011;2582;48.770;9.190;2022-10-16T14:52:20;7.10;;;1.80;;
5127;SDS011;2582;48.770;9.190;2022-10-16T14:54:49;4.63;;;1.90;;
5127;SDS011;2582;48.770;9.190;2022-10-16T14:57:18;7.60;;;2.17;;
5127;SDS011;2582;48.770;9.190;2022-10-16T14:59:47;6.77;;;1.77;;
5127;SDS011;2582;48.770;9.190;2022-10-16T15:02:31;4.87;;;2.17;;
5127;SDS011;2582;48.770;9.190;2022-10-16T15:05:07;7.60;;;2.00;;
5127;SDS011;2582;48.770;9.190;2022-10-16T15:07:47;5.00;;;2.20;;
5127;SDS011;2582;48.770;9.190;2022-10-16T15:10:14;12.20;;;2.30;;
5127;SDS011;2582;48.770;9.190;2022-10-16T15:12:42;5.20;;;2.70;;
5127;SDS011;2582;48.770;9.190;2022-10-16T15:17:48;4.90;;;2.07;;
5127;SDS011;2582;48.770;9.190;2022-10-16T15:20:18;6.63;;;2.43;;
5127;SDS011;2582;48.770;9.190;2022-10-16T15:22:44;6.47;;;2.40;;
5127;SDS011;2582;48.770;9.190;2022-10-16T15:25:32;3.77;;;2.40;;
5127;SDS011;2582;48.770;9.190;2022-10-16T15:27:58;7.47;;;2.60;;
5127;SDS011;2582;48.770;9.190;2022-10-16T15:30:25;8.50;;;2.17;;
5127;SDS011;2582;48.770;9.190;2022-10-16T15:32:51;7.60;;;2.40;;
5127;SDS011;2582;48.770;9.190;2022-10-16T15:35:17;6.00;;;2.10;;
5127;SDS011;2582;48.770;9.190;2022-10-16T15:37:42;7.93;;;2.60;;
5127;SDS011;2582;48.770;9.190;2022-10-16T15:40:09;5.37;;;2.40;;
5127;SDS011;2582;48.770;9.190;2022-10-16T15:42:35;6.30;;;2.20;;
5127;SDS011;2582;48.770;9.190;2022-10-16T15:45:01;8.00;;;2.33;;
5127;SDS011;2582;48.770;9.190;2022-10-16T15:47:26;10.73;;;2.27;;
5127;SDS011;2582;48.770;9.190;2022-10-16T15:49:52;4.40;;;2.50;;
5127;SDS011;2582;48.770;9.190;2022-10-16T15:52:17;6.07;;;2.67;;
5127;SDS011;2582;48.770;9.190;2022-10-16T15:54:43;7.00;;;2.40;;
5127;SDS011;2582;48.770;9.190;2022-10-16T15:57:09;3.70;;;2.17;;
5127;SDS011;2582;48.770;9.190;2022-10-16T15:59:34;7.50;;;2.70;;
5127;SDS011;2582;48.770;9.190;2022-10-16T16:02:00;7.67;;;2.47;;
5127;SDS011;2582;48.770;9.190;2022-10-16T16:04:25;4.33;;;2.10;;
5127;SDS011;2582;48.770;9.190;2022-10-16T16:06:51;12.07;;;2.70;;
5127;SDS011;2582;48.770;9.190;2022-10-16T16:09:16;6.33;;;2.13;;
5127;SDS011;2582;48.770;9.190;2022-10-16T16:11:42;4.80;;;2.50;;
5127;SDS011;2582;48.770;9.190;2022-10-16T16:14:10;8.13;;;2.30;;
5127;SDS011;2582;48.770;9.190;2022-10-16T16:16:38;9.83;;;3.27;;
5127;SDS011;2582;48.770;9.190;2022-10-16T16:19:04;18.27;;;2.80;;
5127;SDS011;2582;48.770;9.190;2022-10-16T16:21:31;7.30;;;2.30;;
5127;SDS011;2582;48.770;9.190;2022-10-16T16:23:57;5.93;;;2.57;;
5127;SDS011;2582;48.770;9.190;2022-10-16T16:26:23;4.90;;;2.87;;
5127;SDS011;2582;48.770;9.190;2022-10-16T16:28:57;6.57;;;3.10;;
5127;SDS011;2582;48.770;9.190;2022-10-16T16:31:24;6.40;;;2.90;;
5127;SDS011;2582;48.770;9.190;2022-10-16T16:33:50;6.00;;;2.83;;
5127;SDS011;2582;48.770;9.190;2022-10-16T16:36:16;4.77;;;2.67;;
5127;SDS011;2582;48.770;9.190;2022-10-16T16:38:43;5.77;;;2.83;;
5127;SDS011;2582;48.770;9.190;2022-10-16T16:41:13;5.23;;;2.87;;
5127;SDS011;2582;48.770;9.190;2022-10-16T16:43:42;5.00;;;2.80;;
5127;SDS011;2582;48.770;9.190;2022-10-16T16:46:08;7.10;;;2.90;;
5127;SDS011;2582;48.770;9.190;2022-10-16T16:48:34;4.50;;;2.97;;
5127;SDS011;2582;48.770;9.190;2022-10-16T16:51:04;6.73;;;3.40;;
5127;SDS011;2582;48.770;9.190;2022-10-16T16:53:30;4.83;;;3.23;;
5127;SDS011;2582;48.770;9.190;2022-10-16T16:56:05;7.10;;;3.27;;
5127;SDS011;2582;48.770;9.190;2022-10-16T16:58:31;4.67;;;3.20;;
5127;SDS011;2582;48.770;9.190;2022-10-16T17:00:57;7.23;;;2.83;;
5127;SDS011;2582;48.770;9.190;2022-10-16T17:03:27;5.93;;;3.27;;
5127;SDS011;2582;48.770;9.190;2022-10-16T17:06:00;3.30;;;2.80;;
5127;SDS011;2582;48.770;9.190;2022-10-16T17:08:28;4.60;;;3.10;;
5127;SDS011;2582;48.770;9.190;2022-10-16T17:10:54;7.30;;;3.17;;
5127;SDS011;2582;48.770;9.190;2022-10-16T17:13:22;8.33;;;2.83;;
5127;SDS011;2582;48.770;9.190;2022-10-16T17:15:48;11.50;;;4.00;;
5127;SDS011;2582;48.770;9.190;2022-10-16T17:18:15;6.10;;;3.00;;
5127;SDS011;2582;48.770;9.190;2022-10-16T17:20:42;6.53;;;2.90;;
5127;SDS011;2582;48.770;9.190;2022-10-16T17:23:08;7.33;;;3.33;;
5127;SDS011;2582;48.770;9.190;2022-10-16T17:25:36;9.00;;;2.93;;
5127;SDS011;2582;48.770;9.190;2022-10-16T17:28:02;4.73;;;3.20;;